• Join FlightAware (Why Join?)
  • Login
  • US Flag 
12:37PM EDT


 

Airport Tracker/Info


-or-


 

Live Flight TrackerFlight Track Log ✈ OPT732 ✈ 01-May-2013 ✈ KHOU - KHUM

Flight Track Log - Related Links

Times and Time Zones

All times are in EDT time to prevent confusion due to time zone crossing. See the OPT732 flight status page for this flight to view local times or setup timezone preferences in your user account.

Time Position Orientation Groundspeed Altitude Reporting Facility
EDT Latitude Longitude Course Direction KTS MPH feet Rate Location/Type
09:03AM 29.6375 -95.2889 143° Southeast 166 191 900  Level Houston Center
09:04AM 29.5783 -95.2383 143° Southeast 256 295 5,400 4,020 Climbing Houston Center
09:05AM 29.5286 -95.1794 134° Southeast 287 330 9,600 4,020 Climbing Houston Center
09:06AM 29.4586 -95.1025 136° Southeast 316 364 13,500 2,880 Climbing Houston Center
09:07AM 29.3914 -95.0261 135° Southeast 339 390 15,700 2,160 Climbing Houston Center
09:08AM 29.3303 -94.9328 127° Southeast 366 421 18,000 2,400 Climbing Houston Center
09:09AM 29.2717 -94.8322 124° Southeast 380 437 20,700 2,400 Climbing Houston Center
09:10AM 29.2111 -94.7283 124° Southeast 391 450 23,000 2,280 Climbing Houston Center
09:11AM 29.1489 -94.6181 123° Southeast 409 471 25,400 2,400 Climbing Houston Center
09:12AM 29.0714 -94.4800 123° Southeast 430 495 28,000 2,400 Climbing Houston Center
09:13AM 29.0064 -94.3583 121° Southeast 447 514 30,400 2,280 Climbing Houston Center
09:14AM 28.9394 -94.2361 122° Southeast 454 522 32,700 2,040 Climbing Houston Center
09:15AM 28.9214 -94.0978 98° East 460 529 34,700 1,080 Climbing Houston Center
09:16AM 28.9525 -93.9472 77° East 484 557 35,000 120 Climbing Houston Center
09:17AM 28.9867 -93.7908 76° East 500 575 35,000  Level Houston Center
09:18AM 28.9997 -93.6325 85° East 513 590 35,000  Level Houston Center
09:19AM 29.0006 -93.4361 90° East 516 594 35,000  Level Houston Center
09:20AM 29.0008 -93.2711 90° East 519 597 35,000  Level Houston Center
09:21AM 29.0011 -93.1061 90° East 522 601 35,000 -300 Level Houston Center
09:22AM 29.0019 -92.9444 90° East 517 595 34,400 -1,080 Descending Houston Center
09:23AM 29.0019 -92.7875 90° East 507 583 32,800 -1,560 Descending Houston Center
09:24AM 29.0003 -92.6331 91° East 497 572 31,300 -1,620 Descending Houston Center
09:25AM 28.9997 -92.4442 90° East 496 571 29,500 -1,620 Descending Houston Center
09:26AM 28.9989 -92.2867 90° East 498 573 28,000 -1,500 Descending Houston Center
09:27AM 28.9986 -92.1283 90° East 498 573 26,500 -1,500 Descending Houston Center
09:28AM 28.9969 -91.9714 91° East 496 571 25,000 -1,500 Descending Houston Center
09:29AM 28.9958 -91.8153 90° East 494 568 23,500 -1,500 Descending Houston Center
09:30AM 28.9944 -91.6578 91° East 490 564 22,000 -1,500 Descending Houston Center
09:32AM 28.9922 -91.5061 91° East 481 554 20,500 -1,680 Descending Houston Center
09:33AM 28.9894 -91.3353 91° East 453 521 18,600 -1,680 Descending Houston Center
09:34AM 29.0161 -91.2031 77° East 429 494 17,100 -1,500 Descending Houston Center
09:35AM 29.0747 -91.0581 65° Northeast 428 493 15,400 -1,500 Descending Houston Center
09:36AM 29.1181 -90.9608 63° Northeast 422 486 14,100 -1,440 Descending Houston Center
09:37AM 29.1761 -90.8597 57° Northeast 390 449 12,600 -1,500 Descending Houston Center
09:38AM 29.2361 -90.7908 45° Northeast 337 388 11,100 -1,560 Descending Houston Center
09:39AM 29.3103 -90.7503 25° Northeast 311 358 9,500 -1,620 Descending Houston Center
09:40AM 29.3442 -90.6583 67° East 271 312 7,800 -1,620 Descending Houston Center
09:41AM 29.3556 -90.5861 80° East 265 305 6,200 -1,560 Descending Houston Center
09:42AM 29.3917 -90.5719 19° North 231 266 4,600 -1,740 Descending Houston Center
09:43AM 29.3956 -90.6303 274° West 206 237 3,000 -1,500 Descending Houston Center
09:44AM 29.4508 -90.6592 336° Northwest 179 206 1,700 -1,080 Descending Houston Center
09:45AM 29.4864 -90.6628 355° North 148 170 900 -540 Descending Houston Center
09:46AM 29.5261 -90.6614 North 135 155 700 -240 Descending Houston Center